Terminal Aerodrome Forecast
Issued by NWS Quad Cities IA IL

Home | Current Version | Previous Version | Text Only | Print | Product List | Glossary On
Versions: 1 2 3 4 5 6 7 8 9 10 11 12 13 14 15 16 17 18
384
FTUS43 KDVN 121128
TAFDBQ
TAF
KDBQ 121128Z 1212/1312 30012KT P6SM OVC018
      TEMPO 1212/1215 3SM -SN OVC012
     FM121600 33014G20KT P6SM BKN025
     FM122000 32018G26KT P6SM SCT050
     FM130300 33014KT P6SM SKC=

USA.gov is the U.S. government's official web portal to all federal, state and local government web resources and services.